sensor_id;sensor_type;location;lat;lon;timestamp;pressure;altitude;pressure_sealevel;temperature;humidity
66385;BME280;53426;55.872;37.462;2023-12-28T00:01:42;98224.44;;;-0.90;74.84
66385;BME280;53426;55.872;37.462;2023-12-28T00:04:08;98223.88;;;-0.95;74.92
66385;BME280;53426;55.872;37.462;2023-12-28T00:06:34;98268.47;;;-0.73;74.77
66385;BME280;53426;55.872;37.462;2023-12-28T00:09:01;98252.13;;;-0.75;74.59
66385;BME280;53426;55.872;37.462;2023-12-28T00:11:30;98260.13;;;-0.78;75.16
66385;BME280;53426;55.872;37.462;2023-12-28T00:13:56;98233.16;;;-1.05;74.83
66385;BME280;53426;55.872;37.462;2023-12-28T00:16:22;98275.44;;;-0.73;74.93
66385;BME280;53426;55.872;37.462;2023-12-28T00:18:49;98255.56;;;-0.89;74.95
66385;BME280;53426;55.872;37.462;2023-12-28T00:21:16;98278.88;;;-0.73;74.97
66385;BME280;53426;55.872;37.462;2023-12-28T00:23:42;98269.75;;;-0.80;75.00
66385;BME280;53426;55.872;37.462;2023-12-28T00:26:08;98269.59;;;-0.77;74.72
66385;BME280;53426;55.872;37.462;2023-12-28T00:28:34;98258.22;;;-0.90;74.76
66385;BME280;53426;55.872;37.462;2023-12-28T00:31:02;98263.22;;;-0.87;74.62
66385;BME280;53426;55.872;37.462;2023-12-28T00:33:28;98261.75;;;-0.91;74.88
66385;BME280;53426;55.872;37.462;2023-12-28T00:35:54;98274.53;;;-0.72;74.83
66385;BME280;53426;55.872;37.462;2023-12-28T00:38:20;98281.13;;;-0.67;74.55
66385;BME280;53426;55.872;37.462;2023-12-28T00:40:46;98244.31;;;-0.89;74.17
66385;BME280;53426;55.872;37.462;2023-12-28T00:43:12;98273.94;;;-0.77;74.53
66385;BME280;53426;55.872;37.462;2023-12-28T00:45:56;98281.63;;;-0.76;74.72
66385;BME280;53426;55.872;37.462;2023-12-28T00:48:22;98278.59;;;-0.82;74.49
66385;BME280;53426;55.872;37.462;2023-12-28T00:50:48;98294.81;;;-0.79;74.63
66385;BME280;53426;55.872;37.462;2023-12-28T00:53:14;98284.44;;;-0.79;74.75
66385;BME280;53426;55.872;37.462;2023-12-28T00:55:43;98272.34;;;-0.94;74.86
66385;BME280;53426;55.872;37.462;2023-12-28T00:58:09;98290.06;;;-0.87;74.96
66385;BME280;53426;55.872;37.462;2023-12-28T01:00:35;98257.00;;;-0.99;74.82
66385;BME280;53426;55.872;37.462;2023-12-28T01:03:01;98291.53;;;-0.67;74.50
66385;BME280;53426;55.872;37.462;2023-12-28T01:05:30;98278.97;;;-0.74;74.54
66385;BME280;53426;55.872;37.462;2023-12-28T01:07:59;98262.31;;;-0.86;74.20
66385;BME280;53426;55.872;37.462;2023-12-28T01:10:26;98297.63;;;-0.68;74.39
66385;BME280;53426;55.872;37.462;2023-12-28T01:12:52;98300.50;;;-0.72;74.35
66385;BME280;53426;55.872;37.462;2023-12-28T01:15:18;98286.88;;;-0.92;74.26
66385;BME280;53426;55.872;37.462;2023-12-28T01:17:46;98311.19;;;-0.77;74.60
66385;BME280;53426;55.872;37.462;2023-12-28T01:20:13;98293.13;;;-0.94;74.61
66385;BME280;53426;55.872;37.462;2023-12-28T01:22:39;98315.25;;;-0.73;74.56
66385;BME280;53426;55.872;37.462;2023-12-28T01:25:05;98306.97;;;-0.79;74.66
66385;BME280;53426;55.872;37.462;2023-12-28T01:27:31;98323.53;;;-0.66;74.53
66385;BME280;53426;55.872;37.462;2023-12-28T01:29:57;98320.28;;;-0.70;74.75
66385;BME280;53426;55.872;37.462;2023-12-28T01:32:24;98298.53;;;-0.83;74.43
66385;BME280;53426;55.872;37.462;2023-12-28T01:34:50;98279.22;;;-0.93;74.49
66385;BME280;53426;55.872;37.462;2023-12-28T01:37:17;98313.88;;;-0.64;74.95
66385;BME280;53426;55.872;37.462;2023-12-28T01:39:43;98319.91;;;-0.64;74.27
66385;BME280;53426;55.872;37.462;2023-12-28T01:42:09;98313.16;;;-0.66;74.47
66385;BME280;53426;55.872;37.462;2023-12-28T01:44:36;98322.72;;;-0.67;74.72
66385;BME280;53426;55.872;37.462;2023-12-28T01:47:02;98320.84;;;-0.65;74.11
66385;BME280;53426;55.872;37.462;2023-12-28T01:49:28;98330.66;;;-0.70;74.24
66385;BME280;53426;55.872;37.462;2023-12-28T01:51:54;98326.50;;;-0.72;75.00
66385;BME280;53426;55.872;37.462;2023-12-28T01:54:22;98316.09;;;-0.72;74.81
66385;BME280;53426;55.872;37.462;2023-12-28T01:56:49;98323.19;;;-0.60;74.55
66385;BME280;53426;55.872;37.462;2023-12-28T01:59:15;98331.72;;;-0.58;74.84
66385;BME280;53426;55.872;37.462;2023-12-28T02:01:41;98335.56;;;-0.50;74.07
66385;BME280;53426;55.872;37.462;2023-12-28T02:04:07;98341.75;;;-0.52;74.26
66385;BME280;53426;55.872;37.462;2023-12-28T02:06:34;98342.41;;;-0.49;74.51
66385;BME280;53426;55.872;37.462;2023-12-28T02:09:00;98341.56;;;-0.49;74.53
66385;BME280;53426;55.872;37.462;2023-12-28T02:11:26;98342.97;;;-0.44;74.12
66385;BME280;53426;55.872;37.462;2023-12-28T02:13:55;98330.31;;;-0.64;74.48
66385;BME280;53426;55.872;37.462;2023-12-28T02:16:30;98361.19;;;-0.44;74.13
66385;BME280;53426;55.872;37.462;2023-12-28T02:19:00;98338.69;;;-0.59;74.06
66385;BME280;53426;55.872;37.462;2023-12-28T02:21:31;98343.66;;;-0.70;74.51
66385;BME280;53426;55.872;37.462;2023-12-28T02:23:58;98365.78;;;-0.63;74.80
66385;BME280;53426;55.872;37.462;2023-12-28T02:26:24;98354.75;;;-0.66;74.53
66385;BME280;53426;55.872;37.462;2023-12-28T02:28:50;98350.50;;;-0.83;74.62
66385;BME280;53426;55.872;37.462;2023-12-28T02:31:23;98364.56;;;-0.71;75.15
66385;BME280;53426;55.872;37.462;2023-12-28T02:34:08;98352.25;;;-0.83;74.95
66385;BME280;53426;55.872;37.462;2023-12-28T02:36:41;98356.19;;;-0.76;74.98
66385;BME280;53426;55.872;37.462;2023-12-28T02:39:11;98354.59;;;-0.79;74.90
66385;BME280;53426;55.872;37.462;2023-12-28T02:41:44;98365.19;;;-0.82;74.89
66385;BME280;53426;55.872;37.462;2023-12-28T02:44:13;98359.28;;;-0.86;75.38
66385;BME280;53426;55.872;37.462;2023-12-28T02:46:39;98369.09;;;-0.75;75.36
66385;BME280;53426;55.872;37.462;2023-12-28T02:49:05;98360.44;;;-0.75;75.31
66385;BME280;53426;55.872;37.462;2023-12-28T02:51:32;98368.56;;;-0.66;74.96
66385;BME280;53426;55.872;37.462;2023-12-28T02:53:58;98375.41;;;-0.65;75.14
66385;BME280;53426;55.872;37.462;2023-12-28T02:56:27;98357.75;;;-0.74;74.86
66385;BME280;53426;55.872;37.462;2023-12-28T02:58:53;98350.25;;;-0.78;74.76
66385;BME280;53426;55.872;37.462;2023-12-28T03:01:19;98364.72;;;-0.74;74.49
66385;BME280;53426;55.872;37.462;2023-12-28T03:03:45;98355.34;;;-0.77;74.87
66385;BME280;53426;55.872;37.462;2023-12-28T03:06:11;98364.28;;;-0.67;74.74
66385;BME280;53426;55.872;37.462;2023-12-28T03:08:38;98364.63;;;-0.73;74.71
66385;BME280;53426;55.872;37.462;2023-12-28T03:11:04;98361.84;;;-0.70;74.65
66385;BME280;53426;55.872;37.462;2023-12-28T03:13:31;98378.22;;;-0.68;74.38
66385;BME280;53426;55.872;37.462;2023-12-28T03:15:58;98391.78;;;-0.63;74.63
66385;BME280;53426;55.872;37.462;2023-12-28T03:18:24;98387.16;;;-0.58;74.31
66385;BME280;53426;55.872;37.462;2023-12-28T03:20:50;98348.97;;;-0.87;73.92
66385;BME280;53426;55.872;37.462;2023-12-28T03:23:16;98400.41;;;-0.62;74.33
66385;BME280;53426;55.872;37.462;2023-12-28T03:25:43;98397.97;;;-0.65;74.22
66385;BME280;53426;55.872;37.462;2023-12-28T03:28:08;98403.38;;;-0.68;74.51
66385;BME280;53426;55.872;37.462;2023-12-28T03:30:34;98402.25;;;-0.64;74.62
66385;BME280;53426;55.872;37.462;2023-12-28T03:33:00;98407.72;;;-0.69;74.28
66385;BME280;53426;55.872;37.462;2023-12-28T03:35:26;98398.59;;;-0.76;74.28
66385;BME280;53426;55.872;37.462;2023-12-28T03:37:52;98393.75;;;-0.82;74.89
66385;BME280;53426;55.872;37.462;2023-12-28T03:40:19;98399.44;;;-0.75;74.99
66385;BME280;53426;55.872;37.462;2023-12-28T03:42:46;98398.97;;;-0.82;74.69
66385;BME280;53426;55.872;37.462;2023-12-28T03:45:12;98385.72;;;-0.93;74.93
66385;BME280;53426;55.872;37.462;2023-12-28T03:47:38;98397.03;;;-0.94;74.94
66385;BME280;53426;55.872;37.462;2023-12-28T03:50:05;98410.69;;;-0.91;75.29
66385;BME280;53426;55.872;37.462;2023-12-28T03:52:33;98404.66;;;-0.91;75.70
66385;BME280;53426;55.872;37.462;2023-12-28T03:54:59;98399.19;;;-0.87;75.65
66385;BME280;53426;55.872;37.462;2023-12-28T03:57:26;98411.84;;;-0.80;75.23
66385;BME280;53426;55.872;37.462;2023-12-28T03:59:54;98397.94;;;-0.95;75.43
66385;BME280;53426;55.872;37.462;2023-12-28T04:02:20;98409.59;;;-0.87;75.36
66385;BME280;53426;55.872;37.462;2023-12-28T04:04:45;98413.34;;;-0.92;74.94
66385;BME280;53426;55.872;37.462;2023-12-28T04:07:14;98418.81;;;-0.97;75.46
66385;BME280;53426;55.872;37.462;2023-12-28T04:09:41;98413.22;;;-1.05;75.51
66385;BME280;53426;55.872;37.462;2023-12-28T04:12:07;98415.06;;;-1.22;75.46
66385;BME280;53426;55.872;37.462;2023-12-28T04:14:34;98428.69;;;-1.19;76.02
66385;BME280;53426;55.872;37.462;2023-12-28T04:17:00;98428.44;;;-1.14;76.57
66385;BME280;53426;55.872;37.462;2023-12-28T04:19:26;98409.28;;;-1.28;75.93
66385;BME280;53426;55.872;37.462;2023-12-28T04:21:52;98426.28;;;-1.22;76.27
66385;BME280;53426;55.872;37.462;2023-12-28T04:24:18;98438.44;;;-1.22;76.06
66385;BME280;53426;55.872;37.462;2023-12-28T04:26:44;98438.25;;;-1.19;76.46
66385;BME280;53426;55.872;37.462;2023-12-28T04:29:10;98440.84;;;-1.19;76.40
66385;BME280;53426;55.872;37.462;2023-12-28T04:31:40;98429.47;;;-1.17;76.60
66385;BME280;53426;55.872;37.462;2023-12-28T04:34:09;98441.44;;;-1.14;76.47
66385;BME280;53426;55.872;37.462;2023-12-28T04:36:44;98438.09;;;-1.16;76.02
66385;BME280;53426;55.872;37.462;2023-12-28T04:39:13;98445.63;;;-1.12;76.72
66385;BME280;53426;55.872;37.462;2023-12-28T04:41:40;98446.63;;;-1.14;76.12
66385;BME280;53426;55.872;37.462;2023-12-28T04:44:06;98417.41;;;-1.34;76.21
66385;BME280;53426;55.872;37.462;2023-12-28T04:46:32;98450.66;;;-1.24;76.31
66385;BME280;53426;55.872;37.462;2023-12-28T04:48:59;98448.81;;;-1.22;76.47
66385;BME280;53426;55.872;37.462;2023-12-28T04:51:26;98413.19;;;-1.52;76.08
66385;BME280;53426;55.872;37.462;2023-12-28T04:53:52;98456.59;;;-1.22;76.43
66385;BME280;53426;55.872;37.462;2023-12-28T04:56:19;98458.09;;;-1.18;76.20
66385;BME280;53426;55.872;37.462;2023-12-28T04:58:45;98453.81;;;-1.19;76.46
66385;BME280;53426;55.872;37.462;2023-12-28T05:01:12;98454.78;;;-1.20;76.09
66385;BME280;53426;55.872;37.462;2023-12-28T05:03:38;98437.97;;;-1.31;76.58
66385;BME280;53426;55.872;37.462;2023-12-28T05:06:04;98441.94;;;-1.23;76.28
66385;BME280;53426;55.872;37.462;2023-12-28T05:08:30;98445.31;;;-1.21;75.91
66385;BME280;53426;55.872;37.462;2023-12-28T05:10:56;98456.78;;;-1.10;75.72
66385;BME280;53426;55.872;37.462;2023-12-28T05:13:22;98455.19;;;-1.28;76.03
66385;BME280;53426;55.872;37.462;2023-12-28T05:15:48;98431.94;;;-1.47;76.00
66385;BME280;53426;55.872;37.462;2023-12-28T05:18:14;98476.94;;;-1.31;75.84
66385;BME280;53426;55.872;37.462;2023-12-28T05:20:40;98468.72;;;-1.39;76.20
66385;BME280;53426;55.872;37.462;2023-12-28T05:23:05;98427.50;;;-1.60;76.39
66385;BME280;53426;55.872;37.462;2023-12-28T05:25:31;98408.03;;;-1.69;76.14
66385;BME280;53426;55.872;37.462;2023-12-28T05:27:57;98468.66;;;-1.37;76.61
66385;BME280;53426;55.872;37.462;2023-12-28T05:30:24;98468.97;;;-1.43;76.22
66385;BME280;53426;55.872;37.462;2023-12-28T05:32:50;98487.03;;;-1.42;76.33
66385;BME280;53426;55.872;37.462;2023-12-28T05:35:16;98486.13;;;-1.41;76.17
66385;BME280;53426;55.872;37.462;2023-12-28T05:37:42;98493.31;;;-1.46;76.64
66385;BME280;53426;55.872;37.462;2023-12-28T05:40:08;98502.88;;;-1.46;76.36
66385;BME280;53426;55.872;37.462;2023-12-28T05:42:35;98486.44;;;-1.47;76.80
66385;BME280;53426;55.872;37.462;2023-12-28T05:45:01;98486.22;;;-1.42;76.42
66385;BME280;53426;55.872;37.462;2023-12-28T05:47:30;98471.13;;;-1.51;76.53
66385;BME280;53426;55.872;37.462;2023-12-28T05:49:56;98497.31;;;-1.23;76.30
66385;BME280;53426;55.872;37.462;2023-12-28T05:52:22;98511.97;;;-1.22;76.21
66385;BME280;53426;55.872;37.462;2023-12-28T05:54:48;98489.44;;;-1.21;76.42
66385;BME280;53426;55.872;37.462;2023-12-28T05:57:14;98484.59;;;-1.28;75.92
66385;BME280;53426;55.872;37.462;2023-12-28T05:59:40;98509.31;;;-1.20;75.59
66385;BME280;53426;55.872;37.462;2023-12-28T06:02:06;98506.94;;;-1.25;75.86
66385;BME280;53426;55.872;37.462;2023-12-28T06:04:32;98528.56;;;-1.09;75.29
66385;BME280;53426;55.872;37.462;2023-12-28T06:06:59;98528.19;;;-1.01;75.79
66385;BME280;53426;55.872;37.462;2023-12-28T06:09:25;98524.59;;;-0.99;75.46
66385;BME280;53426;55.872;37.462;2023-12-28T06:11:53;98542.94;;;-0.86;75.20
66385;BME280;53426;55.872;37.462;2023-12-28T06:14:19;98543.28;;;-0.92;75.09
66385;BME280;53426;55.872;37.462;2023-12-28T06:16:45;98549.81;;;-0.85;74.87
66385;BME280;53426;55.872;37.462;2023-12-28T06:19:11;98510.50;;;-1.10;74.98
66385;BME280;53426;55.872;37.462;2023-12-28T06:21:38;98526.94;;;-1.10;74.64
66385;BME280;53426;55.872;37.462;2023-12-28T06:24:04;98562.06;;;-0.87;74.91
66385;BME280;53426;55.872;37.462;2023-12-28T06:26:32;98533.38;;;-1.01;74.82
66385;BME280;53426;55.872;37.462;2023-12-28T06:28:58;98552.09;;;-0.79;74.64
66385;BME280;53426;55.872;37.462;2023-12-28T06:31:24;98575.09;;;-0.71;74.23
66385;BME280;53426;55.872;37.462;2023-12-28T06:33:51;98559.31;;;-0.84;74.39
66385;BME280;53426;55.872;37.462;2023-12-28T06:36:17;98588.91;;;-0.71;74.23
66385;BME280;53426;55.872;37.462;2023-12-28T06:38:44;98589.16;;;-0.60;74.22
66385;BME280;53426;55.872;37.462;2023-12-28T06:41:13;98576.91;;;-0.73;73.99
66385;BME280;53426;55.872;37.462;2023-12-28T06:43:39;98587.81;;;-0.82;73.81
66385;BME280;53426;55.872;37.462;2023-12-28T06:46:05;98597.19;;;-0.80;74.27
66385;BME280;53426;55.872;37.462;2023-12-28T06:48:31;98605.00;;;-0.80;74.46
66385;BME280;53426;55.872;37.462;2023-12-28T06:50:57;98601.47;;;-0.79;74.33
66385;BME280;53426;55.872;37.462;2023-12-28T06:53:23;98555.66;;;-0.97;74.01
66385;BME280;53426;55.872;37.462;2023-12-28T06:55:51;98592.94;;;-0.65;73.73
66385;BME280;53426;55.872;37.462;2023-12-28T06:58:17;98569.38;;;-0.78;73.52
66385;BME280;53426;55.872;37.462;2023-12-28T07:00:47;98612.94;;;-0.50;73.37
66385;BME280;53426;55.872;37.462;2023-12-28T07:03:12;98570.13;;;-0.76;73.26
66385;BME280;53426;55.872;37.462;2023-12-28T07:05:39;98611.50;;;-0.56;73.13
66385;BME280;53426;55.872;37.462;2023-12-28T07:08:05;98618.88;;;-0.48;73.23
66385;BME280;53426;55.872;37.462;2023-12-28T07:10:33;98617.28;;;-0.51;73.35
66385;BME280;53426;55.872;37.462;2023-12-28T07:13:02;98622.31;;;-0.48;73.80
66385;BME280;53426;55.872;37.462;2023-12-28T07:15:32;98618.88;;;-0.48;73.22
66385;BME280;53426;55.872;37.462;2023-12-28T07:17:58;98628.53;;;-0.50;73.24
66385;BME280;53426;55.872;37.462;2023-12-28T07:20:25;98629.84;;;-0.59;73.31
66385;BME280;53426;55.872;37.462;2023-12-28T07:22:51;98621.13;;;-0.58;73.37
66385;BME280;53426;55.872;37.462;2023-12-28T07:25:17;98632.63;;;-0.62;73.30
66385;BME280;53426;55.872;37.462;2023-12-28T07:27:44;98631.31;;;-0.70;73.73
66385;BME280;53426;55.872;37.462;2023-12-28T07:30:22;98593.78;;;-0.98;73.57
66385;BME280;53426;55.872;37.462;2023-12-28T07:32:56;98567.16;;;-1.01;73.46
66385;BME280;53426;55.872;37.462;2023-12-28T07:35:22;98618.84;;;-0.64;72.28
66385;BME280;53426;55.872;37.462;2023-12-28T07:37:48;98611.97;;;-0.65;71.48
66385;BME280;53426;55.872;37.462;2023-12-28T07:40:15;98644.69;;;-0.61;70.82
66385;BME280;53426;55.872;37.462;2023-12-28T07:42:41;98643.84;;;-0.61;71.10
66385;BME280;53426;55.872;37.462;2023-12-28T07:45:07;98636.06;;;-0.61;71.14
66385;BME280;53426;55.872;37.462;2023-12-28T07:47:33;98650.44;;;-0.38;70.97
66385;BME280;53426;55.872;37.462;2023-12-28T07:49:59;98652.59;;;-0.31;70.69
66385;BME280;53426;55.872;37.462;2023-12-28T07:52:26;98642.06;;;-0.28;69.93
66385;BME280;53426;55.872;37.462;2023-12-28T07:54:52;98647.06;;;-0.09;69.92
66385;BME280;53426;55.872;37.462;2023-12-28T07:57:18;98649.84;;;-0.12;69.04
66385;BME280;53426;55.872;37.462;2023-12-28T07:59:45;98646.66;;;-0.17;68.39
66385;BME280;53426;55.872;37.462;2023-12-28T08:02:10;98670.16;;;-0.03;68.05
66385;BME280;53426;55.872;37.462;2023-12-28T08:04:36;98672.59;;;0.00;67.93
66385;BME280;53426;55.872;37.462;2023-12-28T08:07:02;98672.75;;;-0.03;67.66
66385;BME280;53426;55.872;37.462;2023-12-28T08:09:30;98651.53;;;-0.11;67.74
66385;BME280;53426;55.872;37.462;2023-12-28T08:11:56;98675.94;;;0.02;67.99
66385;BME280;53426;55.872;37.462;2023-12-28T08:14:22;98680.41;;;0.00;67.64
66385;BME280;53426;55.872;37.462;2023-12-28T08:16:48;98690.38;;;0.08;67.76
66385;BME280;53426;55.872;37.462;2023-12-28T08:19:14;98686.78;;;0.10;67.64
66385;BME280;53426;55.872;37.462;2023-12-28T08:21:40;98696.09;;;0.14;67.88
66385;BME280;53426;55.872;37.462;2023-12-28T08:24:06;98688.63;;;0.08;67.80
66385;BME280;53426;55.872;37.462;2023-12-28T08:26:32;98685.34;;;0.05;67.73
66385;BME280;53426;55.872;37.462;2023-12-28T08:28:58;98690.38;;;-0.08;67.86
66385;BME280;53426;55.872;37.462;2023-12-28T08:31:24;98668.72;;;-0.09;68.15
66385;BME280;53426;55.872;37.462;2023-12-28T08:33:50;98710.88;;;0.14;67.82
66385;BME280;53426;55.872;37.462;2023-12-28T08:36:18;98694.94;;;0.04;68.37
66385;BME280;53426;55.872;37.462;2023-12-28T08:38:44;98680.63;;;-0.20;68.50
66385;BME280;53426;55.872;37.462;2023-12-28T08:41:23;98705.16;;;-0.09;69.21
66385;BME280;53426;55.872;37.462;2023-12-28T08:43:53;98714.56;;;-0.06;69.10
66385;BME280;53426;55.872;37.462;2023-12-28T08:46:22;98706.66;;;-0.20;69.32
66385;BME280;53426;55.872;37.462;2023-12-28T08:48:50;98713.84;;;-0.25;69.79
66385;BME280;53426;55.872;37.462;2023-12-28T08:51:16;98685.13;;;-0.55;70.10
66385;BME280;53426;55.872;37.462;2023-12-28T08:53:42;98704.59;;;-0.47;71.42
66385;BME280;53426;55.872;37.462;2023-12-28T08:56:19;98707.72;;;-0.40;72.71
66385;BME280;53426;55.872;37.462;2023-12-28T08:58:46;98730.44;;;-0.44;72.57
66385;BME280;53426;55.872;37.462;2023-12-28T09:01:20;98727.44;;;-0.36;73.26
66385;BME280;53426;55.872;37.462;2023-12-28T09:03:52;98725.78;;;-0.21;73.75
66385;BME280;53426;55.872;37.462;2023-12-28T09:06:19;98721.91;;;-0.30;73.22
66385;BME280;53426;55.872;37.462;2023-12-28T09:08:49;98725.28;;;-0.28;72.91
66385;BME280;53426;55.872;37.462;2023-12-28T09:11:19;98728.31;;;-0.20;73.37
66385;BME280;53426;55.872;37.462;2023-12-28T09:13:45;98727.38;;;-0.34;73.28
66385;BME280;53426;55.872;37.462;2023-12-28T09:16:13;98715.72;;;-0.27;73.34
66385;BME280;53426;55.872;37.462;2023-12-28T09:18:40;98735.38;;;-0.06;72.95
66385;BME280;53426;55.872;37.462;2023-12-28T09:21:07;98722.78;;;0.02;72.18
66385;BME280;53426;55.872;37.462;2023-12-28T09:23:35;98719.91;;;-0.09;71.19
66385;BME280;53426;55.872;37.462;2023-12-28T09:26:05;98727.06;;;-0.13;70.48
66385;BME280;53426;55.872;37.462;2023-12-28T09:28:32;98701.28;;;-0.33;70.05
66385;BME280;53426;55.872;37.462;2023-12-28T09:30:58;98730.84;;;-0.18;69.85
66385;BME280;53426;55.872;37.462;2023-12-28T09:33:24;98719.00;;;-0.24;69.57
66385;BME280;53426;55.872;37.462;2023-12-28T09:35:50;98693.56;;;-0.34;69.05
66385;BME280;53426;55.872;37.462;2023-12-28T09:38:16;98734.53;;;-0.07;68.76
66385;BME280;53426;55.872;37.462;2023-12-28T09:40:42;98749.41;;;0.07;67.88
66385;BME280;53426;55.872;37.462;2023-12-28T09:43:23;98739.56;;;0.89;67.43
66385;BME280;53426;55.872;37.462;2023-12-28T09:45:53;98751.09;;;1.15;65.38
66385;BME280;53426;55.872;37.462;2023-12-28T09:48:21;98747.56;;;1.16;64.42
66385;BME280;53426;55.872;37.462;2023-12-28T09:50:52;98744.63;;;0.92;64.57
66385;BME280;53426;55.872;37.462;2023-12-28T09:53:25;98756.69;;;0.63;65.47
66385;BME280;53426;55.872;37.462;2023-12-28T09:55:52;98743.50;;;0.51;65.32
66385;BME280;53426;55.872;37.462;2023-12-28T09:58:19;98722.13;;;0.30;64.95
66385;BME280;53426;55.872;37.462;2023-12-28T10:00:48;98760.25;;;0.47;65.11
66385;BME280;53426;55.872;37.462;2023-12-28T10:03:16;98747.81;;;0.36;65.05
66385;BME280;53426;55.872;37.462;2023-12-28T10:05:43;98730.19;;;0.10;65.52
66385;BME280;53426;55.872;37.462;2023-12-28T10:08:13;98751.00;;;0.25;65.54
66385;BME280;53426;55.872;37.462;2023-12-28T10:10:40;98748.34;;;0.27;65.50
66385;BME280;53426;55.872;37.462;2023-12-28T10:13:07;98722.44;;;0.08;65.68
66385;BME280;53426;55.872;37.462;2023-12-28T10:15:35;98735.28;;;0.11;65.56
66385;BME280;53426;55.872;37.462;2023-12-28T10:18:01;98731.19;;;0.07;65.71
66385;BME280;53426;55.872;37.462;2023-12-28T10:20:28;98749.00;;;0.15;65.31
66385;BME280;53426;55.872;37.462;2023-12-28T10:22:55;98725.31;;;-0.12;65.79
66385;BME280;53426;55.872;37.462;2023-12-28T10:25:21;98733.50;;;-0.20;66.35
66385;BME280;53426;55.872;37.462;2023-12-28T10:27:50;98745.53;;;-0.02;66.18
66385;BME280;53426;55.872;37.462;2023-12-28T10:30:17;98740.25;;;0.00;65.99
66385;BME280;53426;55.872;37.462;2023-12-28T10:32:45;98742.88;;;0.00;66.17
66385;BME280;53426;55.872;37.462;2023-12-28T10:35:11;98748.06;;;0.00;65.94
66385;BME280;53426;55.872;37.462;2023-12-28T10:37:42;98754.34;;;0.12;66.21
66385;BME280;53426;55.872;37.462;2023-12-28T10:40:12;98748.81;;;0.18;65.92
66385;BME280;53426;55.872;37.462;2023-12-28T10:42:49;98725.56;;;0.15;65.85
66385;BME280;53426;55.872;37.462;2023-12-28T10:45:18;98695.66;;;0.06;65.14
66385;BME280;53426;55.872;37.462;2023-12-28T10:50:22;98754.72;;;0.21;64.96
66385;BME280;53426;55.872;37.462;2023-12-28T10:52:59;98728.44;;;0.10;65.12
66385;BME280;53426;55.872;37.462;2023-12-28T11:01:31;98748.47;;;0.24;64.54
66385;BME280;53426;55.872;37.462;2023-12-28T11:06:46;98743.28;;;0.08;64.41
66385;BME280;53426;55.872;37.462;2023-12-28T11:09:15;98757.63;;;-0.01;64.95
66385;BME280;53426;55.872;37.462;2023-12-28T11:11:43;98739.75;;;-0.07;65.49
66385;BME280;53426;55.872;37.462;2023-12-28T11:14:09;98753.00;;;-0.11;65.61
66385;BME280;53426;55.872;37.462;2023-12-28T11:16:37;98746.28;;;0.00;65.01
66385;BME280;53426;55.872;37.462;2023-12-28T11:19:04;98750.06;;;-0.05;64.82
66385;BME280;53426;55.872;37.462;2023-12-28T11:21:31;98763.56;;;-0.14;65.35
66385;BME280;53426;55.872;37.462;2023-12-28T11:23:58;98738.38;;;-0.29;64.95
66385;BME280;53426;55.872;37.462;2023-12-28T11:26:24;98746.09;;;-0.28;65.30
66385;BME280;53426;55.872;37.462;2023-12-28T11:29:00;98755.97;;;-0.34;64.86
66385;BME280;53426;55.872;37.462;2023-12-28T11:31:26;98723.84;;;-0.66;64.75
66385;BME280;53426;55.872;37.462;2023-12-28T11:33:52;98730.09;;;-0.70;64.77
66385;BME280;53426;55.872;37.462;2023-12-28T11:36:25;98759.44;;;-0.51;64.56
66385;BME280;53426;55.872;37.462;2023-12-28T11:38:53;98771.31;;;-0.63;64.44
66385;BME280;53426;55.872;37.462;2023-12-28T11:41:24;98764.66;;;-0.68;64.94
66385;BME280;53426;55.872;37.462;2023-12-28T11:43:53;98763.69;;;-0.83;64.97
66385;BME280;53426;55.872;37.462;2023-12-28T11:46:21;98773.59;;;-0.74;64.91
66385;BME280;53426;55.872;37.462;2023-12-28T11:48:47;98761.09;;;-0.66;64.58
66385;BME280;53426;55.872;37.462;2023-12-28T11:51:13;98729.13;;;-0.85;64.24
66385;BME280;53426;55.872;37.462;2023-12-28T11:53:40;98769.19;;;-0.72;63.86
66385;BME280;53426;55.872;37.462;2023-12-28T11:56:07;98788.72;;;-0.65;64.18
66385;BME280;53426;55.872;37.462;2023-12-28T11:58:35;98769.31;;;-0.75;63.78
66385;BME280;53426;55.872;37.462;2023-12-28T12:01:02;98786.97;;;-0.81;64.57
66385;BME280;53426;55.872;37.462;2023-12-28T12:03:28;98792.88;;;-0.78;64.49
66385;BME280;53426;55.872;37.462;2023-12-28T12:05:55;98778.97;;;-0.94;64.19
66385;BME280;53426;55.872;37.462;2023-12-28T12:08:23;98800.31;;;-0.88;64.17
66385;BME280;53426;55.872;37.462;2023-12-28T12:11:00;98796.63;;;-1.01;63.37
66385;BME280;53426;55.872;37.462;2023-12-28T12:13:28;98810.91;;;-1.09;63.17
66385;BME280;53426;55.872;37.462;2023-12-28T12:15:54;98789.19;;;-1.25;61.39
66385;BME280;53426;55.872;37.462;2023-12-28T12:18:20;98792.06;;;-1.32;61.07
66385;BME280;53426;55.872;37.462;2023-12-28T12:20:46;98795.06;;;-1.22;60.85
66385;BME280;53426;55.872;37.462;2023-12-28T12:23:12;98809.03;;;-1.24;60.46
66385;BME280;53426;55.872;37.462;2023-12-28T12:25:40;98797.03;;;-1.27;60.33
66385;BME280;53426;55.872;37.462;2023-12-28T12:28:07;98797.78;;;-1.61;60.41
66385;BME280;53426;55.872;37.462;2023-12-28T12:30:34;98795.91;;;-1.76;60.23
66385;BME280;53426;55.872;37.462;2023-12-28T12:33:00;98793.81;;;-1.87;60.70
66385;BME280;53426;55.872;37.462;2023-12-28T12:35:30;98794.31;;;-1.97;61.12
66385;BME280;53426;55.872;37.462;2023-12-28T12:37:57;98822.59;;;-2.12;61.29
66385;BME280;53426;55.872;37.462;2023-12-28T12:40:24;98809.25;;;-2.23;61.71
66385;BME280;53426;55.872;37.462;2023-12-28T12:42:53;98841.09;;;-2.19;61.94
66385;BME280;53426;55.872;37.462;2023-12-28T12:45:20;98825.28;;;-2.33;61.90
66385;BME280;53426;55.872;37.462;2023-12-28T12:47:48;98824.00;;;-2.43;62.15
66385;BME280;53426;55.872;37.462;2023-12-28T12:50:15;98852.94;;;-2.34;61.93
66385;BME280;53426;55.872;37.462;2023-12-28T12:52:42;98848.41;;;-2.29;62.47
66385;BME280;53426;55.872;37.462;2023-12-28T12:55:12;98813.13;;;-2.51;61.39
66385;BME280;53426;55.872;37.462;2023-12-28T12:57:39;98840.38;;;-2.23;61.56
66385;BME280;53426;55.872;37.462;2023-12-28T13:00:06;98856.06;;;-2.26;61.73
66385;BME280;53426;55.872;37.462;2023-12-28T13:02:37;98836.09;;;-2.44;61.40